Time;durP1;ratioP1;P1;durP2;ratioP2;P2;SDS_P1;SDS_P2;PMS_P1;PMS_P2;Temp;Humidity;BMP_temperature;BMP_pressure;BME280_temperature;BME280_humidity;BME280_pressure;Samples;Min_cycle;Max_cycle;Signal;HPM_P1;HPM_P2
2021/07/18 00:02:04;;;;;;;8.93;5.93;;;;;;;23.04;100.00;100271.59;714220;1205;115802;-76
2021/07/18 00:17:08;;;;;;;7.33;5.80;;;;;;;22.74;100.00;100253.48;714224;1177;114278;-76
2021/07/18 00:32:10;;;;;;;14.07;6.30;;;;;;;22.66;100.00;100261.78;713619;1201;115281;-76
2021/07/18 00:47:13;;;;;;;10.85;5.93;;;;;;;22.44;100.00;100261.28;713758;1204;114320;-77
2021/07/18 01:02:16;;;;;;;9.73;6.73;;;;;;;22.27;100.00;100240.36;714127;1205;114598;-76
2021/07/18 01:17:19;;;;;;;8.53;6.33;;;;;;;22.15;100.00;100219.91;713875;1205;115106;-76
2021/07/18 01:32:21;;;;;;;10.35;6.63;;;;;;;21.96;100.00;100206.43;713680;1205;114997;-78
2021/07/18 01:47:23;;;;;;;13.23;7.28;;;;;;;21.68;100.00;100212.88;713593;1202;114313;-76
2021/07/18 02:02:25;;;;;;;12.20;6.90;;;;;;;21.72;100.00;100226.63;713682;1178;115316;-76
2021/07/18 02:17:28;;;;;;;10.73;7.08;;;;;;;21.90;100.00;100204.60;713679;1180;114386;-77
2021/07/18 02:32:30;;;;;;;13.80;7.75;;;;;;;21.77;100.00;100226.82;713802;1205;114166;-76
2021/07/18 02:47:32;;;;;;;11.43;7.27;;;;;;;21.75;100.00;100245.72;713830;1202;115159;-77
2021/07/18 03:02:34;;;;;;;11.25;6.83;;;;;;;21.66;100.00;100244.31;713860;1202;114849;-76
2021/07/18 03:17:37;;;;;;;10.60;7.60;;;;;;;21.72;100.00;100258.66;713809;1200;116031;-76
2021/07/18 03:32:40;;;;;;;8.57;6.30;;;;;;;21.77;100.00;100273.05;713680;1192;114298;-78
2021/07/18 03:47:43;;;;;;;13.43;7.50;;;;;;;21.85;100.00;100279.98;713871;1203;114934;-77
2021/07/18 04:02:45;;;;;;;10.63;7.57;;;;;;;21.91;100.00;100297.03;713787;1203;115226;-76
2021/07/18 04:17:47;;;;;;;10.70;7.03;;;;;;;21.83;100.00;100308.75;713822;1202;115944;-76
2021/07/18 04:32:50;;;;;;;11.68;6.90;;;;;;;21.76;100.00;100306.10;713888;1200;114471;-77
2021/07/18 04:47:58;;;;;;;9.60;6.90;;;;;;;21.84;100.00;100305.06;713793;1203;113751;-77
2021/07/18 05:03:00;;;;;;;9.28;6.18;;;;;;;22.24;100.00;100312.13;713955;1202;114279;-79
2021/07/18 05:18:13;;;;;;;11.20;6.63;;;;;;;22.35;100.00;100314.14;713875;1205;114220;-79
2021/07/18 05:33:15;;;;;;;7.45;5.55;;;;;;;22.48;100.00;100301.77;714025;1202;115686;-80
2021/07/18 05:48:23;;;;;;;6.98;5.83;;;;;;;22.89;100.00;100314.67;713793;1203;115468;-78
2021/07/18 06:03:25;;;;;;;8.20;5.65;;;;;;;23.58;100.00;100308.59;714017;1202;114205;-81
2021/07/18 06:18:27;;;;;;;7.38;6.08;;;;;;;23.76;100.00;100299.77;714571;1205;114185;-80
2021/07/18 06:33:29;;;;;;;8.30;6.35;;;;;;;24.04;100.00;100309.98;713849;1201;115319;-81
2021/07/18 06:48:31;;;;;;;9.08;7.25;;;;;;;24.63;100.00;100322.09;714844;1202;114180;-81
2021/07/18 07:03:34;;;;;;;9.25;7.70;;;;;;;24.96;100.00;100321.60;714341;1203;114209;-82
2021/07/18 07:18:37;;;;;;;8.13;6.93;;;;;;;25.63;100.00;100323.22;713524;1205;116015;-81
2021/07/18 07:33:40;;;;;;;8.78;6.65;;;;;;;25.93;100.00;100310.68;714076;1178;113447;-81
2021/07/18 07:48:42;;;;;;;9.93;7.33;;;;;;;27.10;100.00;100305.91;714626;1177;114180;-82
2021/07/18 08:03:44;;;;;;;9.38;7.10;;;;;;;27.80;100.00;100305.59;714133;1200;115104;-82
2021/07/18 08:18:47;;;;;;;8.45;7.65;;;;;;;28.54;99.68;100298.91;714100;1202;115268;-77
2021/07/18 08:33:49;;;;;;;9.03;8.13;;;;;;;28.83;94.80;100293.28;715058;1203;114919;-75
2021/07/18 08:48:51;;;;;;;9.77;7.10;;;;;;;29.75;91.80;100292.27;714701;1201;114564;-76
2021/07/18 09:03:53;;;;;;;9.33;6.98;;;;;;;29.37;87.90;100284.25;715317;1200;114638;-83
2021/07/18 09:19:22;;;;;;;7.45;6.70;;;;;;;29.98;86.27;100297.27;716191;1205;114755;-78
2021/07/18 09:34:24;;;;;;;10.38;7.40;;;;;;;30.20;85.38;100305.19;718038;1177;113974;-73
2021/07/18 09:49:34;;;;;;;8.40;7.60;;;;;;;30.28;82.70;100303.06;715613;1203;114854;-81
2021/07/18 10:04:39;;;;;;;27.08;12.78;;;;;;;30.97;81.18;100301.80;726844;1176;114002;-82
2021/07/18 10:19:42;;;;;;;11.20;7.47;;;;;;;31.17;78.00;100295.61;718821;1200;114837;-82
2021/07/18 10:34:46;;;;;;;8.63;6.28;;;;;;;32.17;76.19;100282.28;715730;1177;114176;-83
2021/07/18 10:49:54;;;;;;;5.53;5.03;;;;;;;30.85;72.08;100291.24;716131;1176;113906;-85
2021/07/18 11:04:58;;;;;;;9.65;6.90;;;;;;;32.24;70.40;100275.75;716623;1200;113977;-84
2021/07/18 11:20:04;;;;;;;8.10;5.70;;;;;;;31.31;71.03;100267.95;715817;1201;114726;-83
2021/07/18 11:35:17;;;;;;;10.90;6.50;;;;;;;32.05;69.61;100257.38;716293;1177;113922;-84
2021/07/18 11:50:21;;;;;;;9.50;5.20;;;;;;;31.99;68.05;100248.47;716138;1179;114575;-85
2021/07/18 12:05:23;;;;;;;5.68;4.88;;;;;;;31.95;68.43;100236.56;715869;1206;113830;-84
2021/07/18 12:20:26;;;;;;;5.57;4.37;;;;;;;32.13;66.33;100228.86;715950;1202;113988;-85
2021/07/18 12:35:28;;;;;;;6.57;4.53;;;;;;;32.98;61.90;100208.67;716230;1200;113986;-84
2021/07/18 12:50:31;;;;;;;7.20;5.57;;;;;;;32.60;61.59;100208.45;716385;1200;114619;-84
2021/07/18 13:05:33;;;;;;;12.00;6.90;;;;;;;32.82;58.98;100202.59;717584;1202;115495;-83
2021/07/18 13:20:39;;;;;;;8.28;6.38;;;;;;;32.54;59.20;100203.36;716157;1200;114876;-84
2021/07/18 13:35:52;;;;;;;8.87;5.00;;;;;;;33.78;58.89;100191.97;720976;1203;113774;-83
2021/07/18 13:50:57;;;;;;;6.85;4.50;;;;;;;34.23;57.07;100186.97;716366;1200;114185;-85
2021/07/18 14:05:59;;;;;;;5.55;3.15;;;;;;;33.90;58.54;100161.65;716129;1202;114180;-85
2021/07/18 14:21:02;;;;;;;4.73;2.90;;;;;;;33.62;59.43;100145.95;716202;1184;114049;-84
2021/07/18 14:36:04;;;;;;;5.55;2.33;;;;;;;33.70;59.02;100133.61;716317;1202;114971;-82
2021/07/18 14:51:06;;;;;;;5.80;2.55;;;;;;;33.65;60.11;100136.41;718300;1178;114005;-78
2021/07/18 15:06:08;;;;;;;3.05;2.10;;;;;;;32.83;60.05;100130.06;717348;1203;114381;-79
2021/07/18 15:21:11;;;;;;;2.73;1.70;;;;;;;32.61;59.72;100133.23;717543;1203;114324;-79
2021/07/18 15:36:13;;;;;;;4.03;2.08;;;;;;;32.04;58.92;100139.13;715269;1202;114066;-76
2021/07/18 15:51:16;;;;;;;4.43;1.73;;;;;;;31.32;59.02;100137.63;715251;1177;114398;-75
2021/07/18 16:06:18;;;;;;;9.15;5.30;;;;;;;31.20;58.81;100129.02;715144;1202;115066;-74
2021/07/18 16:21:20;;;;;;;4.73;3.90;;;;;;;31.00;60.32;100135.26;714844;1202;114938;-74
2021/07/18 16:36:22;;;;;;;5.40;3.20;;;;;;;30.64;61.60;100138.05;715124;1202;113950;-73
2021/07/18 16:51:36;;;;;;;7.08;2.55;;;;;;;30.10;62.63;100174.55;718164;1202;114208;-72
2021/07/18 17:06:42;;;;;;;12.83;6.45;;;;;;;29.34;63.49;100177.54;714657;1202;115370;-74
2021/07/18 17:21:44;;;;;;;5.50;2.20;;;;;;;29.34;64.69;100182.94;714762;1179;114154;-74
2021/07/18 17:36:46;;;;;;;4.80;2.20;;;;;;;28.47;66.83;100185.83;715672;1202;114441;-72
2021/07/18 17:51:49;;;;;;;4.00;2.15;;;;;;;27.83;68.50;100189.21;714698;1174;113833;-71
2021/07/18 18:06:53;;;;;;;3.25;2.00;;;;;;;26.71;71.75;100204.39;716003;1200;115483;-77
2021/07/18 18:21:59;;;;;;;6.40;2.65;;;;;;;25.68;74.90;100223.96;715569;1177;113819;-80
2021/07/18 18:37:02;;;;;;;8.93;4.43;;;;;;;24.97;77.91;100239.23;715103;1202;115578;-81
2021/07/18 18:52:05;;;;;;;7.38;4.50;;;;;;;24.34;80.01;100270.89;715490;1203;115381;-82
2021/07/18 19:07:07;;;;;;;18.17;9.33;;;;;;;23.72;82.83;100296.72;715626;1202;114892;-83
2021/07/18 19:22:09;;;;;;;11.43;6.87;;;;;;;23.31;84.95;100319.55;715877;1179;115136;-76
2021/07/18 19:37:12;;;;;;;9.60;6.93;;;;;;;22.96;86.32;100311.95;718533;1202;114905;-74
2021/07/18 19:52:14;;;;;;;10.70;7.60;;;;;;;22.38;87.79;100316.41;715557;1202;115365;-75
2021/07/18 20:07:16;;;;;;;14.83;8.33;;;;;;;22.04;88.90;100302.33;714120;1177;114547;-74
2021/07/18 20:22:18;;;;;;;10.70;6.40;;;;;;;21.74;90.10;100305.47;714621;1177;114159;-74
2021/07/18 20:37:23;;;;;;;12.08;6.70;;;;;;;21.48;91.73;100321.50;714149;1200;115194;-74
2021/07/18 20:52:26;;;;;;;13.15;6.40;;;;;;;21.17;92.82;100309.59;714206;1186;114469;-74
2021/07/18 21:07:28;;;;;;;13.85;7.15;;;;;;;20.85;93.47;100312.02;714326;1200;115755;-74
2021/07/18 21:22:30;;;;;;;16.23;7.63;;;;;;;20.70;94.48;100330.86;714264;1205;115230;-74
2021/07/18 21:37:32;;;;;;;13.00;6.90;;;;;;;20.55;95.89;100330.99;714123;1203;114750;-74
2021/07/18 21:52:34;;;;;;;13.33;7.60;;;;;;;20.03;97.70;100341.19;714013;1200;114156;-74
2021/07/18 22:07:38;;;;;;;10.10;5.33;;;;;;;19.90;98.55;100334.78;713963;1205;114407;-74
2021/07/18 22:22:41;;;;;;;13.67;6.97;;;;;;;19.81;98.45;100319.11;714485;1202;114549;-73
2021/07/18 22:37:43;;;;;;;11.35;6.20;;;;;;;19.60;99.08;100313.66;713929;1182;115244;-74
2021/07/18 22:52:46;;;;;;;12.17;5.60;;;;;;;19.39;100.00;100314.53;713233;1202;115675;-74
2021/07/18 23:07:48;;;;;;;8.45;5.05;;;;;;;19.31;100.00;100305.86;714063;1202;114782;-73
2021/07/18 23:22:51;;;;;;;14.40;6.47;;;;;;;19.21;100.00;100300.88;714141;1204;114831;-75
2021/07/18 23:37:53;;;;;;;11.33;5.90;;;;;;;18.92;100.00;100306.13;714134;1200;114334;-74
2021/07/18 23:52:55;;;;;;;12.57;5.83;;;;;;;18.76;100.00;100295.73;714307;1177;114806;-73
